Terminal Aerodrome Forecast
Issued by NWS

Home | Current Version | Previous Version | Text Only | Print | Product List | Glossary Off
Versions: 1 2 3 4 5 6 7 8 9 10 11 12

000
FTUS43 KMPX 260520
TAFRWF
TAF
KRWF 260520Z 2606/2706 29004KT P6SM SCT100
     FM260700 32004KT P6SM SKC
     FM261600 34007KT P6SM FEW060
     FM270100 28003KT P6SM SKC=

USA.gov is the U.S. government's official web portal to all federal, state and local government web resources and services.